createdAt,value
2022-08-08T00:00:53.802Z,0.00
2022-08-08T00:00:54.152Z,0.00
2022-08-08T00:02:03.158Z,0.00
2022-08-08T00:02:46.483Z,0.00
2022-08-08T00:03:45.271Z,0.00
2022-08-08T00:04:49.458Z,0.00
2022-08-08T00:06:02.746Z,0.00
2022-08-08T00:06:46.272Z,0.00
2022-08-08T00:07:45.179Z,0.00
2022-08-08T00:08:49.140Z,0.00
2022-08-08T00:09:45.150Z,0.00
2022-08-08T00:10:46.181Z,0.00
2022-08-08T00:11:46.601Z,0.00
2022-08-08T00:12:48.511Z,0.00
2022-08-08T00:14:15.333Z,0.00
2022-08-08T00:14:48.467Z,0.00
2022-08-08T00:15:56.511Z,0.00
2022-08-08T00:16:46.183Z,0.00
2022-08-08T00:18:02.408Z,0.00
2022-08-08T00:18:46.080Z,0.00
2022-08-08T00:19:51.236Z,0.00
2022-08-08T00:20:46.098Z,0.00
2022-08-08T00:21:45.105Z,0.00
2022-08-08T00:22:45.078Z,0.00
2022-08-08T00:23:51.067Z,0.00
2022-08-08T00:24:46.061Z,0.00
2022-08-08T00:25:50.625Z,0.00
2022-08-08T00:26:46.089Z,0.00
2022-08-08T00:27:45.038Z,0.00
2022-08-08T00:28:44.991Z,0.00
2022-08-08T00:29:46.968Z,0.00
2022-08-08T00:31:00.219Z,0.00
2022-08-08T00:32:28.742Z,0.00
2022-08-08T00:32:46.199Z,0.00
2022-08-08T00:34:17.319Z,0.00
2022-08-08T00:34:46.002Z,0.00
2022-08-08T00:35:48.185Z,0.00
2022-08-08T00:36:44.988Z,0.00
2022-08-08T00:37:57.025Z,0.00
2022-08-08T00:38:51.758Z,0.00
2022-08-08T00:41:10.273Z,0.00
2022-08-08T00:41:10.463Z,0.00
2022-08-08T00:42:08.073Z,0.00
2022-08-08T00:42:46.051Z,0.00
2022-08-08T00:43:46.007Z,0.00
2022-08-08T00:44:45.877Z,0.00
2022-08-08T00:45:44.880Z,0.00
2022-08-08T00:46:56.933Z,0.00
2022-08-08T00:48:02.070Z,0.00
2022-08-08T00:49:00.886Z,0.00
2022-08-08T00:49:57.728Z,0.00
2022-08-08T00:50:48.186Z,0.00
2022-08-08T00:51:45.861Z,0.00
2022-08-08T00:52:48.398Z,0.00
2022-08-08T00:54:04.132Z,0.00
2022-08-08T00:54:45.981Z,0.00
2022-08-08T00:55:53.755Z,0.00
2022-08-08T00:56:45.745Z,0.00
2022-08-08T00:57:44.767Z,0.00
2022-08-08T00:58:54.737Z,0.00
2022-08-08T00:59:46.419Z,0.00
2022-08-08T01:00:44.752Z,0.00
2022-08-08T01:01:45.779Z,0.00
2022-08-08T01:03:59.516Z,0.00
2022-08-08T01:04:01.688Z,0.00
2022-08-08T01:04:47.375Z,0.00
2022-08-08T01:05:59.339Z,0.00
2022-08-08T01:06:47.512Z,0.00
2022-08-08T01:07:55.403Z,0.00
2022-08-08T01:08:50.145Z,0.00
2022-08-08T01:09:48.732Z,0.00
2022-08-08T01:10:44.570Z,0.00
2022-08-08T01:11:51.821Z,0.00
2022-08-08T01:12:45.598Z,0.00
2022-08-08T01:13:45.959Z,0.00
2022-08-08T01:14:53.379Z,0.00
2022-08-08T01:15:53.261Z,0.00
2022-08-08T01:16:46.702Z,0.00
2022-08-08T01:17:55.566Z,0.00
2022-08-08T01:18:53.259Z,0.00
2022-08-08T01:20:02.670Z,0.00
2022-08-08T01:20:45.486Z,0.00
2022-08-08T01:22:10.308Z,0.00
2022-08-08T01:22:45.524Z,0.00
2022-08-08T01:24:02.697Z,0.00
2022-08-08T01:24:50.641Z,0.00
2022-08-08T01:25:45.469Z,0.00
2022-08-08T01:26:49.376Z,0.00
2022-08-08T01:27:46.326Z,0.00
2022-08-08T01:28:44.406Z,0.00
2022-08-08T01:29:59.709Z,0.00
2022-08-08T01:30:45.752Z,0.00
2022-08-08T01:32:13.641Z,0.00
2022-08-08T01:32:45.344Z,0.00
2022-08-08T01:34:00.210Z,0.00
2022-08-08T01:34:45.360Z,0.00
2022-08-08T01:35:44.331Z,0.00
2022-08-08T01:36:48.657Z,0.00
2022-08-08T01:37:57.398Z,0.00
2022-08-08T01:38:45.301Z,0.00
2022-08-08T01:39:44.338Z,0.00
2022-08-08T01:40:44.288Z,0.00
2022-08-08T01:41:44.328Z,0.00
2022-08-08T01:42:44.262Z,0.00
2022-08-08T01:43:44.310Z,0.00
2022-08-08T01:44:44.291Z,0.00
2022-08-08T01:45:45.281Z,0.00
2022-08-08T01:46:47.515Z,0.00
2022-08-08T01:48:13.847Z,0.00
2022-08-08T01:48:46.448Z,0.00
2022-08-08T01:49:44.203Z,0.00
2022-08-08T01:50:44.313Z,0.00
2022-08-08T01:52:29.367Z,0.00
2022-08-08T01:54:01.030Z,0.00
2022-08-08T01:55:17.772Z,0.00
2022-08-08T01:55:18.788Z,0.00
2022-08-08T01:56:28.325Z,0.00
2022-08-08T01:56:46.930Z,0.00
2022-08-08T01:58:11.929Z,0.00
2022-08-08T01:58:46.436Z,0.00
2022-08-08T02:00:02.361Z,0.00
2022-08-08T02:00:48.539Z,0.00
2022-08-08T02:02:00.207Z,0.00
2022-08-08T02:02:45.378Z,0.00
2022-08-08T02:03:56.827Z,0.00
2022-08-08T02:04:45.054Z,0.00
2022-08-08T02:05:56.910Z,0.00
2022-08-08T02:06:45.070Z,0.00
2022-08-08T02:07:48.786Z,0.00
2022-08-08T02:08:45.686Z,0.00
2022-08-08T02:10:02.720Z,0.00
2022-08-08T02:10:45.914Z,0.00
2022-08-08T02:11:59.523Z,0.00
2022-08-08T02:12:45.046Z,0.00
2022-08-08T02:13:53.708Z,0.00
2022-08-08T02:14:55.892Z,0.00
2022-08-08T02:15:44.978Z,0.00
2022-08-08T02:16:43.941Z,0.00
2022-08-08T02:17:43.949Z,0.00
2022-08-08T02:18:43.937Z,0.00
2022-08-08T02:20:07.801Z,0.00
2022-08-08T02:21:01.822Z,0.00
2022-08-08T02:21:44.864Z,0.00
2022-08-08T02:22:52.318Z,0.00
2022-08-08T02:23:44.870Z,0.00
2022-08-08T02:24:44.224Z,0.00
2022-08-08T02:25:48.479Z,0.00
2022-08-08T02:26:44.807Z,0.00
2022-08-08T02:27:43.989Z,0.00
2022-08-08T02:28:48.614Z,0.00
2022-08-08T02:29:51.594Z,0.00
2022-08-08T02:30:49.744Z,0.00
2022-08-08T02:31:59.588Z,0.00
2022-08-08T02:32:44.790Z,0.00
2022-08-08T02:34:00.585Z,0.00
2022-08-08T02:35:08.596Z,0.00
2022-08-08T02:36:04.280Z,0.00
2022-08-08T02:36:44.753Z,0.00
2022-08-08T02:37:51.966Z,0.00
2022-08-08T02:38:48.957Z,0.00
2022-08-08T02:40:00.289Z,0.00
2022-08-08T02:40:45.146Z,0.00
2022-08-08T02:41:58.942Z,0.00
2022-08-08T02:42:44.706Z,0.00
2022-08-08T02:44:37.769Z,0.00
2022-08-08T02:44:54.320Z,0.00
2022-08-08T02:45:54.035Z,0.00
2022-08-08T02:46:44.657Z,0.00
2022-08-08T02:47:46.765Z,0.00
2022-08-08T02:48:45.295Z,0.00
2022-08-08T02:49:47.828Z,0.00
2022-08-08T02:50:52.878Z,0.00
2022-08-08T02:51:55.202Z,0.00
2022-08-08T02:52:50.306Z,0.00
2022-08-08T02:53:44.568Z,0.00
2022-08-08T02:54:43.575Z,0.00
2022-08-08T02:55:43.564Z,0.00
2022-08-08T02:56:43.536Z,0.00
2022-08-08T02:57:44.440Z,0.00
2022-08-08T02:58:43.533Z,0.00
2022-08-08T02:59:57.660Z,0.00
2022-08-08T03:00:50.779Z,0.00
2022-08-08T03:01:50.109Z,0.00
2022-08-08T03:02:50.390Z,0.00
2022-08-08T03:05:00.988Z,0.00
2022-08-08T03:05:03.185Z,0.00
2022-08-08T03:05:45.449Z,0.00
2022-08-08T03:06:43.487Z,0.00
2022-08-08T03:07:57.967Z,0.00
2022-08-08T03:08:44.460Z,0.00
2022-08-08T03:09:44.433Z,0.00
2022-08-08T03:10:44.645Z,0.00
2022-08-08T03:12:01.005Z,0.00
2022-08-08T03:13:02.591Z,0.00
2022-08-08T03:15:58.630Z,0.00
2022-08-08T03:16:03.865Z,0.00
2022-08-08T03:16:04.029Z,0.00
2022-08-08T03:16:44.371Z,0.00
2022-08-08T03:17:43.406Z,0.00
2022-08-08T03:18:44.359Z,0.00
2022-08-08T03:19:50.669Z,0.00
2022-08-08T03:20:46.808Z,0.00
2022-08-08T03:21:58.199Z,0.00
2022-08-08T03:22:44.320Z,0.00
2022-08-08T03:23:59.508Z,0.00
2022-08-08T03:24:44.295Z,0.00
2022-08-08T03:25:43.257Z,4.00
2022-08-08T03:26:43.283Z,0.00
2022-08-08T03:27:43.323Z,0.00
2022-08-08T03:28:43.236Z,4.00
2022-08-08T03:29:56.166Z,4.00
2022-08-08T03:30:44.224Z,4.00
2022-08-08T03:32:05.287Z,4.00
2022-08-08T03:32:47.276Z,4.00
2022-08-08T03:33:55.739Z,4.00
2022-08-08T03:34:44.194Z,8.00
2022-08-08T03:35:43.159Z,8.00
2022-08-08T03:36:44.172Z,8.00
2022-08-08T03:38:53.207Z,12.00
2022-08-08T03:38:54.776Z,8.00
2022-08-08T03:39:51.994Z,12.00
2022-08-08T03:40:46.722Z,12.00
2022-08-08T03:42:27.229Z,20.00
2022-08-08T03:42:45.648Z,20.00
2022-08-08T03:43:43.119Z,24.00
2022-08-08T03:44:47.815Z,24.00
2022-08-08T03:46:04.964Z,28.00
2022-08-08T03:46:44.064Z,32.00
2022-08-08T03:47:45.971Z,40.00
2022-08-08T03:49:56.375Z,44.00
2022-08-08T03:49:59.776Z,48.00
2022-08-08T03:50:44.024Z,52.00
2022-08-08T03:51:51.446Z,60.00
2022-08-08T03:52:45.155Z,64.00
2022-08-08T03:53:47.588Z,72.00
2022-08-08T03:55:01.701Z,80.00
2022-08-08T03:55:56.629Z,92.00
2022-08-08T03:56:46.571Z,100.00
2022-08-08T03:58:31.630Z,108.00
2022-08-08T03:58:47.872Z,120.00
2022-08-08T04:00:02.533Z,132.00
2022-08-08T04:01:02.872Z,144.00
2022-08-08T04:02:12.631Z,156.00
2022-08-08T04:02:51.851Z,164.00
2022-08-08T04:03:58.018Z,180.00
2022-08-08T04:04:43.993Z,192.00
2022-08-08T04:05:48.120Z,208.00
2022-08-08T04:06:43.851Z,220.00
2022-08-08T04:07:42.865Z,236.00
2022-08-08T04:08:46.042Z,252.00
2022-08-08T04:10:02.991Z,268.00
2022-08-08T04:10:43.824Z,284.00
2022-08-08T04:11:57.972Z,300.00
2022-08-08T04:12:43.847Z,316.00
2022-08-08T04:14:03.631Z,332.00
2022-08-08T04:14:44.947Z,348.00
2022-08-08T04:15:55.210Z,368.00
2022-08-08T04:16:43.813Z,384.00
2022-08-08T04:17:58.013Z,400.00
2022-08-08T04:18:48.635Z,416.00
2022-08-08T04:19:43.730Z,432.00
2022-08-08T04:20:42.743Z,456.00
2022-08-08T04:21:45.714Z,468.00
2022-08-08T04:22:42.745Z,488.00
2022-08-08T04:24:19.322Z,508.00
2022-08-08T04:24:43.686Z,524.00
2022-08-08T04:25:43.665Z,540.00
2022-08-08T04:26:57.338Z,560.00
2022-08-08T04:28:03.008Z,580.00
2022-08-08T04:28:43.669Z,596.00
2022-08-08T04:29:55.051Z,612.00
2022-08-08T04:30:44.605Z,632.00
2022-08-08T04:31:59.658Z,656.00
2022-08-08T04:32:47.820Z,680.00
2022-08-08T04:33:43.613Z,700.00
2022-08-08T04:34:49.308Z,724.00
2022-08-08T04:35:50.869Z,748.00
2022-08-08T04:36:43.621Z,780.00
2022-08-08T04:37:43.555Z,808.00
2022-08-08T04:38:43.823Z,840.00
2022-08-08T04:40:05.763Z,868.00
2022-08-08T04:40:54.312Z,900.00
2022-08-08T04:41:43.555Z,936.00
2022-08-08T04:42:46.609Z,968.00
2022-08-08T04:43:46.903Z,1004.00
2022-08-08T04:44:43.500Z,1040.00
2022-08-08T04:45:42.495Z,1076.00
2022-08-08T04:46:42.455Z,1112.00
2022-08-08T04:47:46.448Z,1148.00
2022-08-08T04:48:42.594Z,1180.00
2022-08-08T04:50:01.621Z,1220.00
2022-08-08T04:50:45.889Z,1252.00
2022-08-08T04:51:55.031Z,1288.00
2022-08-08T04:52:43.408Z,1324.00
2022-08-08T04:54:36.130Z,1360.00
2022-08-08T04:54:43.434Z,1392.00
2022-08-08T04:55:55.604Z,1432.00
2022-08-08T04:56:43.369Z,1476.00
2022-08-08T04:57:42.365Z,1516.00
2022-08-08T04:58:42.429Z,1560.00
2022-08-08T04:59:42.739Z,1604.00
2022-08-08T05:00:42.372Z,1648.00
2022-08-08T05:01:48.392Z,1688.00
2022-08-08T05:02:43.377Z,1728.00
2022-08-08T05:04:08.363Z,1772.00
2022-08-08T05:04:44.619Z,1812.00
2022-08-08T05:05:45.411Z,1852.00
2022-08-08T05:06:42.362Z,1892.00
2022-08-08T05:07:42.791Z,1932.00
2022-08-08T05:08:42.258Z,1968.00
2022-08-08T05:09:42.254Z,2004.00
2022-08-08T05:10:42.241Z,2052.00
2022-08-08T05:11:42.253Z,2092.00
2022-08-08T05:12:59.987Z,2136.00
2022-08-08T05:13:58.191Z,2176.00
2022-08-08T05:14:43.211Z,2220.00
2022-08-08T05:16:52.129Z,2316.00
2022-08-08T05:16:54.787Z,2268.00
2022-08-08T05:17:54.138Z,2368.00
2022-08-08T05:18:43.206Z,2408.00
2022-08-08T05:20:11.421Z,2460.00
2022-08-08T05:20:50.337Z,2508.00
2022-08-08T05:21:43.705Z,2552.00
2022-08-08T05:22:43.142Z,2604.00
2022-08-08T05:23:46.083Z,2648.00
2022-08-08T05:24:42.135Z,2692.00
2022-08-08T05:25:43.238Z,2736.00
2022-08-08T05:26:42.075Z,2776.00
2022-08-08T05:27:44.426Z,2820.00
2022-08-08T05:28:56.409Z,2856.00
2022-08-08T05:29:43.090Z,2904.00
2022-08-08T05:30:47.405Z,2948.00
2022-08-08T05:32:03.577Z,2992.00
2022-08-08T05:32:43.560Z,3040.00
2022-08-08T05:33:44.242Z,3084.00
2022-08-08T05:34:43.491Z,3128.00
2022-08-08T05:35:42.016Z,3164.00
2022-08-08T05:36:42.130Z,3208.00
2022-08-08T05:37:52.929Z,3248.00
2022-08-08T05:38:43.023Z,3292.00
2022-08-08T05:39:42.016Z,3332.00
2022-08-08T05:40:41.934Z,3368.00
2022-08-08T05:41:46.294Z,3408.00
2022-08-08T05:42:42.896Z,3448.00
2022-08-08T05:44:03.734Z,3484.00
2022-08-08T05:44:42.900Z,3520.00
2022-08-08T05:45:53.063Z,3556.00
2022-08-08T05:46:42.886Z,3600.00
2022-08-08T05:47:59.804Z,3652.00
2022-08-08T05:48:42.856Z,3696.00
2022-08-08T05:49:41.894Z,3740.00
2022-08-08T05:50:42.854Z,3780.00
2022-08-08T05:51:48.472Z,3824.00
2022-08-08T05:52:42.809Z,3860.00
2022-08-08T05:54:24.886Z,3896.00
2022-08-08T05:54:50.229Z,3936.00
2022-08-08T05:56:07.875Z,3972.00
2022-08-08T05:56:47.448Z,4008.00
2022-08-08T05:58:04.538Z,4044.00
2022-08-08T05:58:53.532Z,4080.00
2022-08-08T05:59:53.674Z,4116.00
2022-08-08T06:00:44.449Z,4156.00
2022-08-08T06:01:55.565Z,4188.00
2022-08-08T06:02:43.508Z,4224.00
2022-08-08T06:03:42.102Z,4256.00
2022-08-08T06:04:41.725Z,4284.00
2022-08-08T06:05:42.688Z,4296.00
2022-08-08T06:06:41.675Z,4352.00
2022-08-08T06:07:43.790Z,4388.00
2022-08-08T06:08:53.378Z,4420.00
2022-08-08T06:10:00.360Z,4444.00
2022-08-08T06:10:42.713Z,4484.00
2022-08-08T06:11:46.006Z,4512.00
2022-08-08T06:12:43.453Z,4552.00
2022-08-08T06:13:47.256Z,4596.00
2022-08-08T06:14:47.890Z,4628.00
2022-08-08T06:15:53.329Z,4656.00
2022-08-08T06:16:42.653Z,4692.00
2022-08-08T06:17:50.866Z,4720.00
2022-08-08T06:18:42.958Z,4764.00
2022-08-08T06:19:41.646Z,4788.00
2022-08-08T06:20:41.610Z,4820.00
2022-08-08T06:21:48.821Z,4856.00
2022-08-08T06:22:42.579Z,4872.00
2022-08-08T06:23:53.126Z,4892.00
2022-08-08T06:24:47.091Z,4928.00
2022-08-08T06:26:39.010Z,4960.00
2022-08-08T06:26:45.287Z,4984.00
2022-08-08T06:27:47.582Z,5012.00
2022-08-08T06:28:42.468Z,5040.00
2022-08-08T06:29:56.830Z,5076.00
2022-08-08T06:30:42.472Z,5092.00
2022-08-08T06:32:09.103Z,5116.00
2022-08-08T06:32:42.414Z,5128.00
2022-08-08T06:34:25.505Z,5156.00
2022-08-08T06:34:42.432Z,5184.00
2022-08-08T06:36:09.241Z,5200.00
2022-08-08T06:36:53.621Z,5224.00
2022-08-08T06:37:43.669Z,5240.00
2022-08-08T06:38:42.786Z,5264.00
2022-08-08T06:39:56.111Z,5280.00
2022-08-08T06:40:48.829Z,5296.00
2022-08-08T06:41:42.328Z,5316.00
2022-08-08T06:42:42.343Z,5336.00
2022-08-08T06:43:41.315Z,5356.00
2022-08-08T06:44:42.686Z,5368.00
2022-08-08T06:45:42.293Z,5392.00
2022-08-08T06:46:41.291Z,5416.00
2022-08-08T06:47:52.705Z,5424.00
2022-08-08T06:48:42.431Z,5436.00
2022-08-08T06:49:56.858Z,5444.00
2022-08-08T06:50:42.304Z,5448.00
2022-08-08T06:51:49.055Z,5456.00
2022-08-08T06:52:42.953Z,5456.00
2022-08-08T06:53:50.835Z,5460.00
2022-08-08T06:54:42.195Z,5468.00
2022-08-08T06:55:41.684Z,5472.00
2022-08-08T06:56:41.184Z,5476.00
2022-08-08T06:57:54.801Z,5484.00
2022-08-08T06:58:42.213Z,5484.00
2022-08-08T07:00:02.548Z,5488.00
2022-08-08T07:00:42.133Z,5492.00
2022-08-08T07:02:17.232Z,5496.00
2022-08-08T07:02:45.376Z,5496.00
2022-08-08T07:04:35.034Z,5504.00
2022-08-08T07:04:47.907Z,5508.00
2022-08-08T07:05:43.113Z,5492.00
2022-08-08T07:06:42.114Z,5520.00
2022-08-08T07:07:41.136Z,5524.00
2022-08-08T07:08:41.154Z,5528.00
2022-08-08T07:09:45.312Z,5544.00
2022-08-08T07:10:45.972Z,5548.00
2022-08-08T07:11:50.623Z,5552.00
2022-08-08T07:12:43.003Z,5556.00
2022-08-08T07:14:00.563Z,5560.00
2022-08-08T07:14:42.029Z,5564.00
2022-08-08T07:16:05.599Z,5568.00
2022-08-08T07:16:51.169Z,5580.00
2022-08-08T07:18:01.451Z,5580.00
2022-08-08T07:18:42.068Z,5576.00
2022-08-08T07:19:40.968Z,5584.00
2022-08-08T07:20:50.459Z,5596.00
2022-08-08T07:21:41.950Z,5600.00
2022-08-08T07:22:40.951Z,5592.00
2022-08-08T07:24:01.818Z,5596.00
2022-08-08T07:24:42.022Z,5596.00
2022-08-08T07:25:54.087Z,5592.00
2022-08-08T07:26:41.950Z,5600.00
2022-08-08T07:27:46.974Z,5600.00
2022-08-08T07:28:41.963Z,5600.00
2022-08-08T07:30:02.533Z,5600.00
2022-08-08T07:31:54.433Z,5604.00
2022-08-08T07:32:29.903Z,5612.00
2022-08-08T08:22:07.776Z,5680.00
2022-08-08T08:22:16.028Z,5672.00
2022-08-08T08:23:16.044Z,5652.00
2022-08-08T08:24:15.539Z,5652.00
2022-08-08T08:25:19.182Z,5640.00
2022-08-08T08:26:15.058Z,5628.00
2022-08-08T08:27:17.707Z,5656.00
2022-08-08T08:28:21.167Z,5644.00
2022-08-08T10:58:36.830Z,4684.00
2022-08-08T10:59:22.246Z,4660.00
2022-08-08T11:00:21.272Z,4628.00
2022-08-08T11:01:21.762Z,4628.00
2022-08-08T11:02:22.336Z,4636.00
2022-08-08T11:03:36.340Z,4640.00
2022-08-08T11:04:29.531Z,4616.00
2022-08-08T11:05:23.073Z,4600.00
2022-08-08T11:06:21.147Z,4604.00
2022-08-08T11:08:30.188Z,4584.00
2022-08-08T11:08:38.865Z,4572.00
2022-08-08T11:09:22.959Z,4572.00
2022-08-08T11:10:28.797Z,4568.00
2022-08-08T11:11:59.759Z,4544.00
2022-08-08T11:12:22.114Z,4568.00
2022-08-08T11:13:31.737Z,4536.00
2022-08-08T11:14:26.256Z,4528.00
2022-08-08T11:15:21.083Z,4512.00
2022-08-08T11:16:32.153Z,4500.00
2022-08-08T11:17:58.621Z,4492.00
2022-08-08T11:18:22.043Z,4480.00
2022-08-08T11:19:21.071Z,4468.00
2022-08-08T11:20:27.711Z,4456.00
2022-08-08T11:21:22.005Z,4444.00
2022-08-08T11:22:20.991Z,4432.00
2022-08-08T11:23:21.998Z,4416.00
2022-08-08T11:24:20.970Z,4404.00
2022-08-08T11:25:20.992Z,4396.00
2022-08-08T11:26:27.904Z,4396.00
2022-08-08T11:27:23.466Z,4380.00
2022-08-08T11:28:21.947Z,4352.00
2022-08-08T11:29:20.972Z,4336.00
2022-08-08T11:30:24.955Z,4332.00
2022-08-08T11:31:21.903Z,4352.00
2022-08-08T11:32:20.895Z,4344.00
2022-08-08T11:33:21.908Z,4328.00
2022-08-08T11:34:23.551Z,4316.00
2022-08-08T11:35:27.314Z,4308.00
2022-08-08T11:36:21.855Z,4300.00
2022-08-08T11:38:34.677Z,4300.00
2022-08-08T11:38:35.184Z,4316.00
2022-08-08T11:39:21.850Z,4320.00
2022-08-08T11:40:25.768Z,4312.00
2022-08-08T11:41:21.803Z,4320.00
2022-08-08T11:42:26.695Z,4312.00
2022-08-08T11:43:24.509Z,4312.00
2022-08-08T11:44:28.783Z,4308.00
2022-08-08T11:45:21.770Z,4316.00
2022-08-08T11:46:20.762Z,4316.00
2022-08-08T11:47:21.029Z,4312.00
2022-08-08T11:48:20.995Z,4316.00
2022-08-08T11:49:20.729Z,4316.00
2022-08-08T11:50:23.481Z,4316.00
2022-08-08T11:51:29.888Z,4316.00
2022-08-08T11:52:27.402Z,4328.00
2022-08-08T11:53:24.356Z,4332.00
2022-08-08T11:54:31.203Z,4340.00
2022-08-08T11:55:21.674Z,4344.00
2022-08-08T11:56:20.660Z,4340.00
2022-08-08T11:57:23.859Z,4344.00
2022-08-08T11:58:21.784Z,4360.00
2022-08-08T11:59:20.647Z,4356.00
2022-08-08T12:00:21.618Z,4356.00
2022-08-08T12:01:20.619Z,4364.00
2022-08-08T12:02:32.631Z,4372.00
2022-08-08T12:03:21.658Z,4380.00
2022-08-08T12:04:20.608Z,4384.00
2022-08-08T12:05:22.765Z,4380.00
2022-08-08T12:06:20.566Z,4376.00
2022-08-08T12:07:20.554Z,4392.00
2022-08-08T12:08:20.556Z,4404.00
2022-08-08T12:09:20.536Z,4416.00
2022-08-08T12:10:20.533Z,4424.00
2022-08-08T12:11:27.075Z,4428.00
2022-08-08T12:12:28.552Z,4444.00
2022-08-08T12:13:38.319Z,4448.00
2022-08-08T12:14:22.682Z,4452.00
2022-08-08T12:15:41.766Z,4452.00
2022-08-08T12:16:31.712Z,4464.00
2022-08-08T12:17:23.355Z,4476.00
2022-08-08T12:18:24.295Z,4488.00
2022-08-08T12:19:22.118Z,4492.00
2022-08-08T12:20:23.276Z,4496.00
2022-08-08T12:21:21.763Z,4496.00
2022-08-08T12:22:23.310Z,4500.00
2022-08-08T12:23:30.502Z,4524.00
2022-08-08T12:24:28.033Z,4540.00
2022-08-08T12:25:24.714Z,4552.00
2022-08-08T12:26:28.567Z,4564.00
2022-08-08T12:27:26.485Z,4540.00
2022-08-08T12:28:21.915Z,4580.00
2022-08-08T12:29:55.530Z,4592.00
2022-08-08T12:30:51.059Z,4596.00
2022-08-08T12:31:22.572Z,4604.00
2022-08-08T12:32:24.891Z,4620.00
2022-08-08T12:33:21.512Z,4632.00
2022-08-08T12:35:54.458Z,4644.00
2022-08-08T12:35:56.048Z,4648.00
2022-08-08T12:36:56.910Z,4656.00
2022-08-08T12:38:02.187Z,4688.00
2022-08-08T12:43:47.794Z,4664.00
2022-08-08T12:44:39.642Z,4684.00
2022-08-08T12:45:57.829Z,4664.00
2022-08-08T12:46:39.643Z,4704.00
2022-08-08T12:48:04.389Z,4692.00
2022-08-08T12:48:39.697Z,4728.00
2022-08-08T12:49:43.066Z,4740.00
2022-08-08T12:50:39.588Z,4724.00
2022-08-08T12:51:39.839Z,4740.00
2022-08-08T12:52:40.444Z,4756.00
2022-08-08T12:53:42.403Z,4772.00
2022-08-08T12:54:40.867Z,4764.00
2022-08-08T12:56:05.924Z,4772.00
2022-08-08T12:56:39.571Z,4796.00
2022-08-08T12:57:49.899Z,4804.00
2022-08-08T12:58:39.599Z,4812.00
2022-08-08T12:59:45.130Z,4820.00
2022-08-08T13:00:39.552Z,4816.00
2022-08-08T13:01:38.563Z,4820.00
2022-08-08T13:02:42.201Z,4828.00
2022-08-08T13:03:41.956Z,4824.00
2022-08-08T13:04:38.465Z,4820.00
2022-08-08T13:06:05.634Z,4836.00
2022-08-08T13:06:39.438Z,4848.00
2022-08-08T13:08:02.857Z,4852.00
2022-08-08T13:08:39.441Z,4828.00
2022-08-08T13:09:43.353Z,4852.00
2022-08-08T13:10:46.130Z,4872.00
2022-08-08T13:12:17.973Z,4876.00
2022-08-08T13:12:44.461Z,4856.00
2022-08-08T13:13:39.391Z,4872.00
2022-08-08T13:14:38.366Z,4892.00
2022-08-08T13:15:40.535Z,4864.00
2022-08-08T13:16:39.541Z,4852.00
2022-08-08T13:18:09.181Z,4852.00
2022-08-08T13:18:55.754Z,4856.00
2022-08-08T13:19:49.634Z,4876.00
2022-08-08T13:20:40.541Z,4860.00
2022-08-08T13:21:53.711Z,4840.00
2022-08-08T13:22:40.565Z,4856.00
2022-08-08T13:23:46.558Z,4856.00
2022-08-08T13:24:48.102Z,4864.00
2022-08-08T13:25:40.457Z,4844.00
2022-08-08T13:26:39.413Z,4780.00
2022-08-08T13:27:40.418Z,4764.00
2022-08-08T13:28:42.098Z,4768.00
2022-08-08T13:29:40.942Z,4776.00
2022-08-08T13:30:39.381Z,4776.00
2022-08-08T13:31:39.386Z,4776.00
2022-08-08T13:32:39.704Z,4776.00
2022-08-08T13:33:42.689Z,4780.00
2022-08-08T13:35:02.147Z,4788.00
2022-08-08T13:38:06.331Z,4788.00
2022-08-08T13:38:52.885Z,4796.00
2022-08-08T13:40:44.581Z,4808.00
2022-08-08T13:44:11.020Z,4788.00
2022-08-08T13:47:18.266Z,4784.00
2022-08-08T13:47:58.199Z,4772.00
2022-08-08T13:50:34.830Z,4756.00
2022-08-08T13:50:35.329Z,4744.00
2022-08-08T13:51:33.414Z,4748.00
2022-08-08T13:51:55.805Z,4744.00
2022-08-08T13:52:55.570Z,4732.00
2022-08-08T13:54:00.007Z,4732.00
2022-08-08T13:54:55.748Z,4712.00
2022-08-08T13:55:54.792Z,4712.00
2022-08-08T13:56:59.928Z,4700.00
2022-08-08T13:58:07.812Z,4688.00
2022-08-08T13:58:57.387Z,4680.00
2022-08-08T13:59:54.726Z,4676.00
2022-08-08T14:00:54.803Z,4660.00
2022-08-08T14:01:57.187Z,4648.00
2022-08-08T14:02:54.960Z,4644.00
2022-08-08T14:03:56.043Z,4636.00
2022-08-08T14:04:55.672Z,4636.00
2022-08-08T14:06:01.147Z,4624.00
2022-08-08T14:06:55.693Z,4608.00
2022-08-08T14:07:59.534Z,4588.00
2022-08-08T14:09:24.443Z,4588.00
2022-08-08T14:10:04.343Z,4576.00
2022-08-08T14:11:55.883Z,4564.00
2022-08-08T14:12:54.595Z,4556.00
2022-08-08T14:14:00.416Z,4544.00
2022-08-08T14:14:55.607Z,4544.00
2022-08-08T14:15:54.615Z,4524.00
2022-08-08T14:16:55.460Z,4504.00
2022-08-08T14:18:35.789Z,4476.00
2022-08-08T16:13:02.254Z,1824.00
2022-08-08T16:13:03.640Z,1844.00
2022-08-08T16:13:13.851Z,1840.00
2022-08-08T16:13:20.476Z,1832.00
2022-08-08T16:13:45.799Z,1816.00
2022-08-08T16:14:34.773Z,1808.00
2022-08-08T16:15:33.773Z,1800.00
2022-08-08T16:16:36.386Z,1796.00
2022-08-08T16:18:06.443Z,1788.00
2022-08-08T16:18:38.806Z,1784.00
2022-08-08T16:20:00.148Z,1776.00
2022-08-08T16:20:34.723Z,1772.00
2022-08-08T16:21:33.708Z,1760.00
2022-08-08T16:22:35.415Z,1756.00
2022-08-08T16:23:39.943Z,1744.00
2022-08-08T16:24:39.061Z,1740.00
2022-08-08T16:25:45.905Z,1732.00
2022-08-08T16:26:35.795Z,1728.00
2022-08-08T16:27:42.489Z,1720.00
2022-08-08T16:28:37.342Z,1712.00
2022-08-08T16:30:08.754Z,1700.00
2022-08-08T16:30:36.652Z,1696.00
2022-08-08T16:31:33.608Z,1688.00
2022-08-08T16:32:33.797Z,1680.00
2022-08-08T16:33:38.081Z,1676.00
2022-08-08T16:34:34.608Z,1668.00
2022-08-08T16:35:33.592Z,1664.00
2022-08-08T16:36:34.376Z,1656.00
2022-08-08T16:37:33.551Z,1652.00
2022-08-08T16:38:33.552Z,1644.00
2022-08-08T16:40:00.506Z,1640.00
2022-08-08T16:40:34.612Z,1636.00
2022-08-08T16:41:33.559Z,1632.00
2022-08-08T16:42:34.913Z,1624.00
2022-08-08T16:43:42.039Z,1616.00
2022-08-08T16:44:34.698Z,1608.00
2022-08-08T16:46:37.653Z,1600.00
2022-08-08T16:46:44.863Z,1592.00
2022-08-08T16:47:42.144Z,1584.00
2022-08-08T16:48:37.026Z,1576.00
2022-08-08T16:49:38.537Z,1572.00
2022-08-08T16:50:35.352Z,1564.00
2022-08-08T16:55:01.614Z,1556.00
2022-08-08T16:55:02.064Z,1544.00
2022-08-08T16:55:04.079Z,1548.00
2022-08-08T16:55:06.025Z,1536.00
2022-08-08T16:55:55.652Z,1532.00
2022-08-08T16:56:34.376Z,1524.00
2022-08-08T16:58:16.619Z,1520.00
2022-08-08T16:58:34.881Z,1512.00
2022-08-08T16:59:50.796Z,1508.00
2022-08-08T17:00:34.405Z,1500.00
2022-08-08T17:01:35.623Z,1500.00
2022-08-08T17:02:39.742Z,1492.00
2022-08-08T17:03:58.973Z,1480.00
2022-08-08T17:04:34.291Z,1472.00
2022-08-08T17:05:45.092Z,1464.00
2022-08-08T17:06:43.385Z,1456.00
2022-08-08T17:07:37.549Z,1448.00
2022-08-08T17:08:34.421Z,1440.00
2022-08-08T17:09:44.885Z,1436.00
2022-08-08T17:10:35.394Z,1424.00
2022-08-08T17:11:39.294Z,1416.00
2022-08-08T17:12:36.687Z,1408.00
2022-08-08T17:13:49.822Z,1404.00
2022-08-08T17:14:35.353Z,1388.00
2022-08-08T17:15:34.594Z,1384.00
2022-08-08T17:16:35.342Z,1372.00
2022-08-08T17:18:01.279Z,1364.00
2022-08-08T17:18:35.340Z,1356.00
2022-08-08T17:19:41.052Z,1348.00
2022-08-08T17:20:39.494Z,1332.00
2022-08-08T17:21:34.326Z,1324.00
2022-08-08T17:22:42.159Z,1312.00
2022-08-08T17:24:00.375Z,1304.00
2022-08-08T17:24:35.294Z,1292.00
2022-08-08T17:25:51.973Z,1280.00
2022-08-08T17:26:35.296Z,1272.00
2022-08-08T17:27:46.285Z,1260.00
2022-08-08T17:28:35.723Z,1252.00
2022-08-08T17:29:36.498Z,1240.00
2022-08-08T17:30:35.205Z,1232.00
2022-08-08T17:31:44.373Z,1216.00
2022-08-08T17:34:30.261Z,1208.00
2022-08-08T17:34:37.434Z,1196.00
2022-08-08T17:35:04.213Z,1188.00
2022-08-08T17:35:54.418Z,1176.00
2022-08-08T17:36:35.164Z,1164.00
2022-08-08T17:37:34.183Z,1152.00
2022-08-08T17:38:34.140Z,1140.00
2022-08-08T17:40:03.211Z,1132.00
2022-08-08T17:40:35.164Z,1120.00
2022-08-08T17:41:38.889Z,1108.00
2022-08-08T17:42:35.102Z,1096.00
2022-08-08T17:44:01.189Z,1084.00
2022-08-08T17:44:37.451Z,1072.00
2022-08-08T17:45:36.509Z,1060.00
2022-08-08T17:46:34.070Z,1048.00
2022-08-08T17:47:40.141Z,1036.00
2022-08-08T17:48:35.034Z,1024.00
2022-08-08T17:49:42.715Z,1012.00